sensor_id;sensor_type;location;lat;lon;timestamp;temperature;humidity
43810;DHT22;29440;48.208;11.162;2023-12-20T00:02:13;5.90;99.90
43810;DHT22;29440;48.208;11.162;2023-12-20T00:04:39;5.90;99.90
43810;DHT22;29440;48.208;11.162;2023-12-20T00:07:04;5.90;99.90
43810;DHT22;29440;48.208;11.162;2023-12-20T00:09:30;5.90;99.90
43810;DHT22;29440;48.208;11.162;2023-12-20T00:11:55;5.80;99.90
43810;DHT22;29440;48.208;11.162;2023-12-20T00:14:22;5.90;99.90
43810;DHT22;29440;48.208;11.162;2023-12-20T00:16:47;5.90;99.90
43810;DHT22;29440;48.208;11.162;2023-12-20T00:19:13;5.90;99.90
43810;DHT22;29440;48.208;11.162;2023-12-20T00:21:38;5.90;99.90
43810;DHT22;29440;48.208;11.162;2023-12-20T00:24:04;5.90;99.90
43810;DHT22;29440;48.208;11.162;2023-12-20T00:26:30;5.90;99.90
43810;DHT22;29440;48.208;11.162;2023-12-20T00:28:56;5.90;99.90
43810;DHT22;29440;48.208;11.162;2023-12-20T00:31:21;5.90;99.90
43810;DHT22;29440;48.208;11.162;2023-12-20T00:33:47;5.90;99.90
43810;DHT22;29440;48.208;11.162;2023-12-20T00:36:12;5.90;99.90
43810;DHT22;29440;48.208;11.162;2023-12-20T00:38:38;5.90;99.90
43810;DHT22;29440;48.208;11.162;2023-12-20T00:41:03;5.90;99.90
43810;DHT22;29440;48.208;11.162;2023-12-20T00:43:29;5.90;99.90
43810;DHT22;29440;48.208;11.162;2023-12-20T00:45:55;5.90;99.90
43810;DHT22;29440;48.208;11.162;2023-12-20T00:48:21;5.90;99.90
43810;DHT22;29440;48.208;11.162;2023-12-20T00:50:46;5.90;99.90
43810;DHT22;29440;48.208;11.162;2023-12-20T00:53:12;5.90;99.90
43810;DHT22;29440;48.208;11.162;2023-12-20T00:55:37;6.00;99.90
43810;DHT22;29440;48.208;11.162;2023-12-20T00:58:03;6.00;99.90
43810;DHT22;29440;48.208;11.162;2023-12-20T01:00:29;6.00;99.90
43810;DHT22;29440;48.208;11.162;2023-12-20T01:02:54;6.00;99.90
43810;DHT22;29440;48.208;11.162;2023-12-20T01:05:20;6.00;99.90
43810;DHT22;29440;48.208;11.162;2023-12-20T01:07:48;6.00;99.90
43810;DHT22;29440;48.208;11.162;2023-12-20T01:10:14;6.00;99.90
43810;DHT22;29440;48.208;11.162;2023-12-20T01:12:40;6.00;99.90
43810;DHT22;29440;48.208;11.162;2023-12-20T01:15:06;6.00;99.90
43810;DHT22;29440;48.208;11.162;2023-12-20T01:17:31;6.00;99.90
43810;DHT22;29440;48.208;11.162;2023-12-20T01:19:57;6.00;99.90
43810;DHT22;29440;48.208;11.162;2023-12-20T01:22:23;6.00;99.90
43810;DHT22;29440;48.208;11.162;2023-12-20T01:24:49;6.00;99.90
43810;DHT22;29440;48.208;11.162;2023-12-20T01:27:14;6.00;99.90
43810;DHT22;29440;48.208;11.162;2023-12-20T01:29:40;6.00;99.90
43810;DHT22;29440;48.208;11.162;2023-12-20T01:32:06;6.00;99.90
43810;DHT22;29440;48.208;11.162;2023-12-20T01:34:31;6.00;99.90
43810;DHT22;29440;48.208;11.162;2023-12-20T01:36:57;6.00;99.90
43810;DHT22;29440;48.208;11.162;2023-12-20T01:39:23;6.00;99.90
43810;DHT22;29440;48.208;11.162;2023-12-20T01:41:48;6.00;99.90
43810;DHT22;29440;48.208;11.162;2023-12-20T01:44:14;6.00;99.90
43810;DHT22;29440;48.208;11.162;2023-12-20T01:46:40;6.00;99.90
43810;DHT22;29440;48.208;11.162;2023-12-20T01:49:06;6.00;99.90
43810;DHT22;29440;48.208;11.162;2023-12-20T01:51:32;6.00;99.90
43810;DHT22;29440;48.208;11.162;2023-12-20T01:53:59;6.00;99.90
43810;DHT22;29440;48.208;11.162;2023-12-20T01:56:26;6.00;99.90
43810;DHT22;29440;48.208;11.162;2023-12-20T01:58:55;6.00;99.90
43810;DHT22;29440;48.208;11.162;2023-12-20T02:01:21;6.00;99.90
43810;DHT22;29440;48.208;11.162;2023-12-20T02:03:47;6.00;99.90
43810;DHT22;29440;48.208;11.162;2023-12-20T02:06:13;6.10;99.90
43810;DHT22;29440;48.208;11.162;2023-12-20T02:08:39;6.10;99.90
43810;DHT22;29440;48.208;11.162;2023-12-20T02:11:04;6.10;99.90
43810;DHT22;29440;48.208;11.162;2023-12-20T02:13:31;6.10;99.90
43810;DHT22;29440;48.208;11.162;2023-12-20T02:15:56;6.10;99.90
43810;DHT22;29440;48.208;11.162;2023-12-20T02:18:22;6.10;99.90
43810;DHT22;29440;48.208;11.162;2023-12-20T02:20:48;6.10;99.90
43810;DHT22;29440;48.208;11.162;2023-12-20T02:23:13;6.10;99.90
43810;DHT22;29440;48.208;11.162;2023-12-20T02:25:39;6.10;99.90
43810;DHT22;29440;48.208;11.162;2023-12-20T02:28:05;6.10;99.90
43810;DHT22;29440;48.208;11.162;2023-12-20T02:30:31;6.20;99.90
43810;DHT22;29440;48.208;11.162;2023-12-20T02:32:57;6.10;99.90
43810;DHT22;29440;48.208;11.162;2023-12-20T02:35:25;6.10;99.90
43810;DHT22;29440;48.208;11.162;2023-12-20T02:37:50;6.20;99.90
43810;DHT22;29440;48.208;11.162;2023-12-20T02:40:16;6.20;99.90
43810;DHT22;29440;48.208;11.162;2023-12-20T02:42:41;6.20;99.90
43810;DHT22;29440;48.208;11.162;2023-12-20T02:45:07;6.20;99.90
43810;DHT22;29440;48.208;11.162;2023-12-20T02:47:33;6.20;99.90
43810;DHT22;29440;48.208;11.162;2023-12-20T02:49:58;6.10;99.90
43810;DHT22;29440;48.208;11.162;2023-12-20T02:52:24;6.20;99.90
43810;DHT22;29440;48.208;11.162;2023-12-20T02:54:50;6.20;99.90
43810;DHT22;29440;48.208;11.162;2023-12-20T02:57:15;6.20;99.90
43810;DHT22;29440;48.208;11.162;2023-12-20T02:59:41;6.20;99.90
43810;DHT22;29440;48.208;11.162;2023-12-20T03:02:06;6.20;99.90
43810;DHT22;29440;48.208;11.162;2023-12-20T03:04:32;6.20;99.90
43810;DHT22;29440;48.208;11.162;2023-12-20T03:06:58;6.20;99.90
43810;DHT22;29440;48.208;11.162;2023-12-20T03:09:23;6.20;99.90
43810;DHT22;29440;48.208;11.162;2023-12-20T03:11:49;6.30;99.90
43810;DHT22;29440;48.208;11.162;2023-12-20T03:14:14;6.20;99.90
43810;DHT22;29440;48.208;11.162;2023-12-20T03:16:40;6.20;99.90
43810;DHT22;29440;48.208;11.162;2023-12-20T03:19:05;6.20;99.90
43810;DHT22;29440;48.208;11.162;2023-12-20T03:21:31;6.20;99.90
43810;DHT22;29440;48.208;11.162;2023-12-20T03:23:57;6.20;99.90
43810;DHT22;29440;48.208;11.162;2023-12-20T03:26:22;6.20;99.90
43810;DHT22;29440;48.208;11.162;2023-12-20T03:28:48;6.10;99.90
43810;DHT22;29440;48.208;11.162;2023-12-20T03:31:14;6.10;99.90
43810;DHT22;29440;48.208;11.162;2023-12-20T03:33:39;6.10;99.90
43810;DHT22;29440;48.208;11.162;2023-12-20T03:36:05;6.10;99.90
43810;DHT22;29440;48.208;11.162;2023-12-20T03:38:31;6.10;99.90
43810;DHT22;29440;48.208;11.162;2023-12-20T03:40:57;6.00;99.90
43810;DHT22;29440;48.208;11.162;2023-12-20T03:43:22;6.00;99.90
43810;DHT22;29440;48.208;11.162;2023-12-20T03:45:48;6.00;99.90
43810;DHT22;29440;48.208;11.162;2023-12-20T03:48:13;6.00;99.90
43810;DHT22;29440;48.208;11.162;2023-12-20T03:50:39;5.90;99.90
43810;DHT22;29440;48.208;11.162;2023-12-20T03:53:04;5.90;99.90
43810;DHT22;29440;48.208;11.162;2023-12-20T03:55:30;5.80;99.90
43810;DHT22;29440;48.208;11.162;2023-12-20T03:57:55;5.80;99.90
43810;DHT22;29440;48.208;11.162;2023-12-20T04:00:21;5.80;99.90
43810;DHT22;29440;48.208;11.162;2023-12-20T04:02:46;5.80;99.90
43810;DHT22;29440;48.208;11.162;2023-12-20T04:05:12;5.70;99.90
43810;DHT22;29440;48.208;11.162;2023-12-20T04:07:38;5.70;99.90
43810;DHT22;29440;48.208;11.162;2023-12-20T04:10:04;5.70;99.90
43810;DHT22;29440;48.208;11.162;2023-12-20T04:12:30;5.60;99.90
43810;DHT22;29440;48.208;11.162;2023-12-20T04:14:57;5.60;99.90
43810;DHT22;29440;48.208;11.162;2023-12-20T04:17:22;5.60;99.90
43810;DHT22;29440;48.208;11.162;2023-12-20T04:19:48;5.60;99.90
43810;DHT22;29440;48.208;11.162;2023-12-20T04:22:14;5.50;99.90
43810;DHT22;29440;48.208;11.162;2023-12-20T04:24:40;5.50;99.90
43810;DHT22;29440;48.208;11.162;2023-12-20T04:27:07;5.50;99.90
43810;DHT22;29440;48.208;11.162;2023-12-20T04:29:33;5.50;99.90
43810;DHT22;29440;48.208;11.162;2023-12-20T04:31:59;5.60;99.90
43810;DHT22;29440;48.208;11.162;2023-12-20T04:34:24;5.50;99.90
43810;DHT22;29440;48.208;11.162;2023-12-20T04:36:50;5.40;99.90
43810;DHT22;29440;48.208;11.162;2023-12-20T04:39:15;5.40;99.90
43810;DHT22;29440;48.208;11.162;2023-12-20T04:41:41;5.40;99.90
43810;DHT22;29440;48.208;11.162;2023-12-20T04:44:07;5.40;99.90
43810;DHT22;29440;48.208;11.162;2023-12-20T04:46:32;5.40;99.90
43810;DHT22;29440;48.208;11.162;2023-12-20T04:48:58;5.40;99.90
43810;DHT22;29440;48.208;11.162;2023-12-20T04:51:23;5.30;99.90
43810;DHT22;29440;48.208;11.162;2023-12-20T04:53:49;5.30;99.90
43810;DHT22;29440;48.208;11.162;2023-12-20T04:56:15;5.30;99.90
43810;DHT22;29440;48.208;11.162;2023-12-20T04:58:41;5.20;99.90
43810;DHT22;29440;48.208;11.162;2023-12-20T05:01:08;5.20;99.90
43810;DHT22;29440;48.208;11.162;2023-12-20T05:03:34;5.20;99.90
43810;DHT22;29440;48.208;11.162;2023-12-20T05:06:00;5.20;99.90
43810;DHT22;29440;48.208;11.162;2023-12-20T05:08:25;5.20;99.90
43810;DHT22;29440;48.208;11.162;2023-12-20T05:10:54;5.20;99.90
43810;DHT22;29440;48.208;11.162;2023-12-20T05:13:21;5.20;99.90
43810;DHT22;29440;48.208;11.162;2023-12-20T05:15:46;5.10;99.90
43810;DHT22;29440;48.208;11.162;2023-12-20T05:18:12;5.10;99.90
43810;DHT22;29440;48.208;11.162;2023-12-20T05:20:39;5.10;99.90
43810;DHT22;29440;48.208;11.162;2023-12-20T05:23:05;5.10;99.90
43810;DHT22;29440;48.208;11.162;2023-12-20T05:25:31;5.00;99.90
43810;DHT22;29440;48.208;11.162;2023-12-20T05:27:56;5.10;99.90
43810;DHT22;29440;48.208;11.162;2023-12-20T05:30:22;5.00;99.90
43810;DHT22;29440;48.208;11.162;2023-12-20T05:32:48;5.10;99.90
43810;DHT22;29440;48.208;11.162;2023-12-20T05:35:13;5.00;99.90
43810;DHT22;29440;48.208;11.162;2023-12-20T05:37:39;5.00;99.90
43810;DHT22;29440;48.208;11.162;2023-12-20T05:40:05;5.00;99.90
43810;DHT22;29440;48.208;11.162;2023-12-20T05:42:31;5.00;99.90
43810;DHT22;29440;48.208;11.162;2023-12-20T05:44:56;5.00;99.90
43810;DHT22;29440;48.208;11.162;2023-12-20T05:47:22;5.00;99.90
43810;DHT22;29440;48.208;11.162;2023-12-20T05:49:47;4.90;99.90
43810;DHT22;29440;48.208;11.162;2023-12-20T05:52:13;4.90;99.90
43810;DHT22;29440;48.208;11.162;2023-12-20T05:54:39;4.90;99.90
43810;DHT22;29440;48.208;11.162;2023-12-20T05:57:04;4.90;99.90
43810;DHT22;29440;48.208;11.162;2023-12-20T05:59:30;4.90;99.90
43810;DHT22;29440;48.208;11.162;2023-12-20T06:01:55;4.80;99.90
43810;DHT22;29440;48.208;11.162;2023-12-20T06:04:21;4.80;99.90
43810;DHT22;29440;48.208;11.162;2023-12-20T06:06:46;4.80;99.90
43810;DHT22;29440;48.208;11.162;2023-12-20T06:09:12;4.80;99.90
43810;DHT22;29440;48.208;11.162;2023-12-20T06:11:37;4.70;99.90
43810;DHT22;29440;48.208;11.162;2023-12-20T06:14:03;4.70;99.90
43810;DHT22;29440;48.208;11.162;2023-12-20T06:16:37;4.70;99.90
43810;DHT22;29440;48.208;11.162;2023-12-20T06:19:02;4.70;99.90
43810;DHT22;29440;48.208;11.162;2023-12-20T06:21:28;4.70;99.90
43810;DHT22;29440;48.208;11.162;2023-12-20T06:23:53;4.70;99.90
43810;DHT22;29440;48.208;11.162;2023-12-20T06:26:20;4.60;99.90
43810;DHT22;29440;48.208;11.162;2023-12-20T06:28:46;4.60;99.90
43810;DHT22;29440;48.208;11.162;2023-12-20T06:31:11;4.60;99.90
43810;DHT22;29440;48.208;11.162;2023-12-20T06:33:37;4.60;99.90
43810;DHT22;29440;48.208;11.162;2023-12-20T06:36:06;4.50;99.90
43810;DHT22;29440;48.208;11.162;2023-12-20T06:38:31;4.50;99.90
43810;DHT22;29440;48.208;11.162;2023-12-20T06:40:57;4.50;99.90
43810;DHT22;29440;48.208;11.162;2023-12-20T06:43:24;4.50;99.90
43810;DHT22;29440;48.208;11.162;2023-12-20T06:45:49;4.50;99.90
43810;DHT22;29440;48.208;11.162;2023-12-20T06:48:15;4.40;99.90
43810;DHT22;29440;48.208;11.162;2023-12-20T06:50:40;4.50;99.90
43810;DHT22;29440;48.208;11.162;2023-12-20T06:53:06;4.40;99.90
43810;DHT22;29440;48.208;11.162;2023-12-20T06:55:35;4.40;99.90
43810;DHT22;29440;48.208;11.162;2023-12-20T06:58:03;4.40;99.90
43810;DHT22;29440;48.208;11.162;2023-12-20T07:00:28;4.40;99.90
43810;DHT22;29440;48.208;11.162;2023-12-20T07:02:54;4.40;99.90
43810;DHT22;29440;48.208;11.162;2023-12-20T07:05:20;4.40;99.90
43810;DHT22;29440;48.208;11.162;2023-12-20T07:07:47;4.40;99.90
43810;DHT22;29440;48.208;11.162;2023-12-20T07:10:13;4.40;99.90
43810;DHT22;29440;48.208;11.162;2023-12-20T07:12:39;4.40;99.90
43810;DHT22;29440;48.208;11.162;2023-12-20T07:15:04;4.40;99.90
43810;DHT22;29440;48.208;11.162;2023-12-20T07:17:31;4.40;99.90
43810;DHT22;29440;48.208;11.162;2023-12-20T07:19:58;4.40;99.90
43810;DHT22;29440;48.208;11.162;2023-12-20T07:22:24;4.40;99.90
43810;DHT22;29440;48.208;11.162;2023-12-20T07:24:49;4.40;99.90
43810;DHT22;29440;48.208;11.162;2023-12-20T07:27:17;4.40;99.90
43810;DHT22;29440;48.208;11.162;2023-12-20T07:29:43;4.40;99.90
43810;DHT22;29440;48.208;11.162;2023-12-20T07:32:08;4.40;99.90
43810;DHT22;29440;48.208;11.162;2023-12-20T07:34:34;4.40;99.90
43810;DHT22;29440;48.208;11.162;2023-12-20T07:37:11;4.40;99.90
43810;DHT22;29440;48.208;11.162;2023-12-20T07:39:39;4.40;99.90
43810;DHT22;29440;48.208;11.162;2023-12-20T07:42:05;4.40;99.90
43810;DHT22;29440;48.208;11.162;2023-12-20T07:44:31;4.40;99.90
43810;DHT22;29440;48.208;11.162;2023-12-20T07:46:56;4.40;99.90
43810;DHT22;29440;48.208;11.162;2023-12-20T07:49:23;4.40;99.90
43810;DHT22;29440;48.208;11.162;2023-12-20T07:51:48;4.40;99.90
43810;DHT22;29440;48.208;11.162;2023-12-20T07:54:14;4.30;99.90
43810;DHT22;29440;48.208;11.162;2023-12-20T07:56:40;4.40;99.90
43810;DHT22;29440;48.208;11.162;2023-12-20T07:59:05;4.40;99.90
43810;DHT22;29440;48.208;11.162;2023-12-20T08:01:31;4.30;99.90
43810;DHT22;29440;48.208;11.162;2023-12-20T08:03:56;4.30;99.90
43810;DHT22;29440;48.208;11.162;2023-12-20T08:06:22;4.30;99.90
43810;DHT22;29440;48.208;11.162;2023-12-20T08:08:49;4.30;99.90
43810;DHT22;29440;48.208;11.162;2023-12-20T08:11:14;4.30;99.90
43810;DHT22;29440;48.208;11.162;2023-12-20T08:13:40;4.30;99.90
43810;DHT22;29440;48.208;11.162;2023-12-20T08:16:06;4.30;99.90
43810;DHT22;29440;48.208;11.162;2023-12-20T08:18:31;4.30;99.90
43810;DHT22;29440;48.208;11.162;2023-12-20T08:20:57;4.30;99.90
43810;DHT22;29440;48.208;11.162;2023-12-20T08:23:22;4.30;99.90
43810;DHT22;29440;48.208;11.162;2023-12-20T08:25:49;4.30;99.90
43810;DHT22;29440;48.208;11.162;2023-12-20T08:28:14;4.40;99.90
43810;DHT22;29440;48.208;11.162;2023-12-20T08:30:40;4.40;99.90
43810;DHT22;29440;48.208;11.162;2023-12-20T08:33:06;4.40;99.90
43810;DHT22;29440;48.208;11.162;2023-12-20T08:35:36;4.40;99.90
43810;DHT22;29440;48.208;11.162;2023-12-20T08:38:02;4.40;99.90
43810;DHT22;29440;48.208;11.162;2023-12-20T08:40:29;4.40;99.90
43810;DHT22;29440;48.208;11.162;2023-12-20T08:42:55;4.50;99.90
43810;DHT22;29440;48.208;11.162;2023-12-20T08:45:20;4.50;99.90
43810;DHT22;29440;48.208;11.162;2023-12-20T08:47:46;4.50;99.90
43810;DHT22;29440;48.208;11.162;2023-12-20T08:50:11;4.60;99.90
43810;DHT22;29440;48.208;11.162;2023-12-20T08:52:37;4.70;99.90
43810;DHT22;29440;48.208;11.162;2023-12-20T08:55:03;4.70;99.90
43810;DHT22;29440;48.208;11.162;2023-12-20T08:57:28;4.70;99.90
43810;DHT22;29440;48.208;11.162;2023-12-20T08:59:54;4.80;99.90
43810;DHT22;29440;48.208;11.162;2023-12-20T09:02:19;4.70;99.90
43810;DHT22;29440;48.208;11.162;2023-12-20T09:04:45;4.80;99.90
43810;DHT22;29440;48.208;11.162;2023-12-20T09:07:37;4.80;99.90
43810;DHT22;29440;48.208;11.162;2023-12-20T09:10:03;4.80;99.90
43810;DHT22;29440;48.208;11.162;2023-12-20T09:12:29;4.80;99.90
43810;DHT22;29440;48.208;11.162;2023-12-20T09:14:54;4.80;99.90
43810;DHT22;29440;48.208;11.162;2023-12-20T09:17:20;4.80;99.90
43810;DHT22;29440;48.208;11.162;2023-12-20T09:19:48;4.80;99.90
43810;DHT22;29440;48.208;11.162;2023-12-20T09:22:13;4.80;99.90
43810;DHT22;29440;48.208;11.162;2023-12-20T09:24:39;4.80;99.90
43810;DHT22;29440;48.208;11.162;2023-12-20T09:27:05;4.80;99.90
43810;DHT22;29440;48.208;11.162;2023-12-20T09:29:31;4.80;99.90
43810;DHT22;29440;48.208;11.162;2023-12-20T09:31:57;4.80;99.90
43810;DHT22;29440;48.208;11.162;2023-12-20T09:34:23;4.80;99.90
43810;DHT22;29440;48.208;11.162;2023-12-20T09:36:48;4.90;99.90
43810;DHT22;29440;48.208;11.162;2023-12-20T09:39:14;4.90;99.90
43810;DHT22;29440;48.208;11.162;2023-12-20T09:41:44;4.90;99.90
43810;DHT22;29440;48.208;11.162;2023-12-20T09:44:16;4.90;99.90
43810;DHT22;29440;48.208;11.162;2023-12-20T09:46:49;4.90;99.90
43810;DHT22;29440;48.208;11.162;2023-12-20T09:49:17;5.00;99.90
43810;DHT22;29440;48.208;11.162;2023-12-20T09:51:45;5.00;99.90
43810;DHT22;29440;48.208;11.162;2023-12-20T09:54:15;5.00;99.90
43810;DHT22;29440;48.208;11.162;2023-12-20T09:56:42;5.10;99.90
43810;DHT22;29440;48.208;11.162;2023-12-20T09:59:07;5.20;99.90
43810;DHT22;29440;48.208;11.162;2023-12-20T10:01:34;5.20;99.90
43810;DHT22;29440;48.208;11.162;2023-12-20T10:04:01;5.30;99.90
43810;DHT22;29440;48.208;11.162;2023-12-20T10:06:32;5.30;99.90
43810;DHT22;29440;48.208;11.162;2023-12-20T10:08:57;5.30;99.90
43810;DHT22;29440;48.208;11.162;2023-12-20T10:11:23;5.40;99.90
43810;DHT22;29440;48.208;11.162;2023-12-20T10:13:50;5.40;99.90
43810;DHT22;29440;48.208;11.162;2023-12-20T10:16:15;5.40;99.90
43810;DHT22;29440;48.208;11.162;2023-12-20T10:18:41;5.50;99.90
43810;DHT22;29440;48.208;11.162;2023-12-20T10:21:07;5.50;99.90
43810;DHT22;29440;48.208;11.162;2023-12-20T10:23:35;5.50;99.90
43810;DHT22;29440;48.208;11.162;2023-12-20T10:26:02;5.50;99.90
43810;DHT22;29440;48.208;11.162;2023-12-20T10:28:33;5.50;99.90
43810;DHT22;29440;48.208;11.162;2023-12-20T10:30:59;5.50;99.90
43810;DHT22;29440;48.208;11.162;2023-12-20T10:33:26;5.50;99.90
43810;DHT22;29440;48.208;11.162;2023-12-20T10:35:52;5.50;99.90
43810;DHT22;29440;48.208;11.162;2023-12-20T10:38:18;5.50;99.90
43810;DHT22;29440;48.208;11.162;2023-12-20T10:40:45;5.50;99.90
43810;DHT22;29440;48.208;11.162;2023-12-20T10:43:12;5.50;99.90
43810;DHT22;29440;48.208;11.162;2023-12-20T10:45:37;5.50;99.90
43810;DHT22;29440;48.208;11.162;2023-12-20T10:48:04;5.50;99.90
43810;DHT22;29440;48.208;11.162;2023-12-20T10:50:30;5.50;99.90
43810;DHT22;29440;48.208;11.162;2023-12-20T10:52:57;5.60;99.90
43810;DHT22;29440;48.208;11.162;2023-12-20T10:55:23;5.60;99.90
43810;DHT22;29440;48.208;11.162;2023-12-20T10:57:51;5.60;99.90
43810;DHT22;29440;48.208;11.162;2023-12-20T11:00:18;5.60;99.90
43810;DHT22;29440;48.208;11.162;2023-12-20T11:02:44;5.60;99.90
43810;DHT22;29440;48.208;11.162;2023-12-20T11:08:03;5.70;99.90
43810;DHT22;29440;48.208;11.162;2023-12-20T11:10:56;5.70;99.90
43810;DHT22;29440;48.208;11.162;2023-12-20T11:13:43;5.80;99.90
43810;DHT22;29440;48.208;11.162;2023-12-20T11:16:10;5.90;99.90
43810;DHT22;29440;48.208;11.162;2023-12-20T11:18:36;5.90;99.90
43810;DHT22;29440;48.208;11.162;2023-12-20T11:21:03;5.90;99.90
43810;DHT22;29440;48.208;11.162;2023-12-20T11:23:30;6.00;99.90
43810;DHT22;29440;48.208;11.162;2023-12-20T11:25:56;6.00;99.90
43810;DHT22;29440;48.208;11.162;2023-12-20T11:28:26;6.00;99.90
43810;DHT22;29440;48.208;11.162;2023-12-20T11:30:56;6.10;99.90
43810;DHT22;29440;48.208;11.162;2023-12-20T11:33:38;6.10;99.90
43810;DHT22;29440;48.208;11.162;2023-12-20T11:36:13;6.10;99.90
43810;DHT22;29440;48.208;11.162;2023-12-20T11:38:39;6.10;99.90
43810;DHT22;29440;48.208;11.162;2023-12-20T11:41:15;6.10;99.90
43810;DHT22;29440;48.208;11.162;2023-12-20T11:43:41;6.10;99.90
43810;DHT22;29440;48.208;11.162;2023-12-20T11:46:08;6.20;99.90
43810;DHT22;29440;48.208;11.162;2023-12-20T11:48:36;6.20;99.90
43810;DHT22;29440;48.208;11.162;2023-12-20T11:51:08;6.20;99.90
43810;DHT22;29440;48.208;11.162;2023-12-20T11:53:34;6.20;99.90
43810;DHT22;29440;48.208;11.162;2023-12-20T11:56:00;6.30;99.90
43810;DHT22;29440;48.208;11.162;2023-12-20T11:58:28;6.40;99.90
43810;DHT22;29440;48.208;11.162;2023-12-20T12:00:55;6.40;99.90
43810;DHT22;29440;48.208;11.162;2023-12-20T12:03:21;6.50;99.90
43810;DHT22;29440;48.208;11.162;2023-12-20T12:05:47;6.50;99.90
43810;DHT22;29440;48.208;11.162;2023-12-20T12:08:13;6.50;99.90
43810;DHT22;29440;48.208;11.162;2023-12-20T12:10:51;6.60;99.90
43810;DHT22;29440;48.208;11.162;2023-12-20T12:13:17;6.60;99.90
43810;DHT22;29440;48.208;11.162;2023-12-20T12:15:43;6.60;99.90
43810;DHT22;29440;48.208;11.162;2023-12-20T12:18:09;6.60;99.90
43810;DHT22;29440;48.208;11.162;2023-12-20T12:20:35;6.60;99.90
43810;DHT22;29440;48.208;11.162;2023-12-20T12:23:06;6.60;99.90
43810;DHT22;29440;48.208;11.162;2023-12-20T12:25:35;6.60;99.90
43810;DHT22;29440;48.208;11.162;2023-12-20T12:28:01;6.50;99.90
43810;DHT22;29440;48.208;11.162;2023-12-20T12:30:27;6.50;99.90
43810;DHT22;29440;48.208;11.162;2023-12-20T12:32:53;6.30;99.90
43810;DHT22;29440;48.208;11.162;2023-12-20T12:35:20;6.30;99.90
43810;DHT22;29440;48.208;11.162;2023-12-20T12:37:46;6.20;99.90
43810;DHT22;29440;48.208;11.162;2023-12-20T12:40:16;6.10;99.90
43810;DHT22;29440;48.208;11.162;2023-12-20T12:42:43;6.00;99.90
43810;DHT22;29440;48.208;11.162;2023-12-20T12:45:09;5.90;99.90
43810;DHT22;29440;48.208;11.162;2023-12-20T12:47:36;5.80;99.90
43810;DHT22;29440;48.208;11.162;2023-12-20T12:50:03;5.70;99.90
43810;DHT22;29440;48.208;11.162;2023-12-20T12:52:30;5.60;99.90
43810;DHT22;29440;48.208;11.162;2023-12-20T12:54:56;5.60;99.90
43810;DHT22;29440;48.208;11.162;2023-12-20T12:57:21;5.50;99.90
43810;DHT22;29440;48.208;11.162;2023-12-20T12:59:47;5.50;99.90
43810;DHT22;29440;48.208;11.162;2023-12-20T13:02:13;5.40;99.90
43810;DHT22;29440;48.208;11.162;2023-12-20T13:05:03;5.40;99.90
43810;DHT22;29440;48.208;11.162;2023-12-20T13:07:29;5.30;99.90
43810;DHT22;29440;48.208;11.162;2023-12-20T13:09:55;5.30;99.90
43810;DHT22;29440;48.208;11.162;2023-12-20T13:12:21;5.30;99.90
43810;DHT22;29440;48.208;11.162;2023-12-20T13:14:47;5.30;99.90
43810;DHT22;29440;48.208;11.162;2023-12-20T13:17:12;5.30;99.90
43810;DHT22;29440;48.208;11.162;2023-12-20T13:19:38;5.20;99.90
43810;DHT22;29440;48.208;11.162;2023-12-20T13:22:03;5.20;99.90
43810;DHT22;29440;48.208;11.162;2023-12-20T13:24:29;5.30;99.90
43810;DHT22;29440;48.208;11.162;2023-12-20T13:26:55;5.30;99.90
43810;DHT22;29440;48.208;11.162;2023-12-20T13:29:21;5.30;99.90
43810;DHT22;29440;48.208;11.162;2023-12-20T13:31:46;5.40;99.90
43810;DHT22;29440;48.208;11.162;2023-12-20T13:34:12;5.40;99.90
43810;DHT22;29440;48.208;11.162;2023-12-20T13:36:38;5.50;99.90
43810;DHT22;29440;48.208;11.162;2023-12-20T13:39:03;5.50;99.90
43810;DHT22;29440;48.208;11.162;2023-12-20T13:41:30;5.50;99.90
43810;DHT22;29440;48.208;11.162;2023-12-20T13:43:56;5.50;99.90
43810;DHT22;29440;48.208;11.162;2023-12-20T13:46:22;5.50;99.90
43810;DHT22;29440;48.208;11.162;2023-12-20T13:48:48;5.50;99.90
43810;DHT22;29440;48.208;11.162;2023-12-20T13:51:15;5.50;99.90
43810;DHT22;29440;48.208;11.162;2023-12-20T13:53:43;5.50;99.90
43810;DHT22;29440;48.208;11.162;2023-12-20T13:56:09;5.50;99.90
43810;DHT22;29440;48.208;11.162;2023-12-20T13:58:34;5.40;99.90
43810;DHT22;29440;48.208;11.162;2023-12-20T14:01:00;5.40;99.90
43810;DHT22;29440;48.208;11.162;2023-12-20T14:03:35;5.40;99.90
43810;DHT22;29440;48.208;11.162;2023-12-20T14:06:00;5.40;99.90
43810;DHT22;29440;48.208;11.162;2023-12-20T14:08:27;5.30;99.90
43810;DHT22;29440;48.208;11.162;2023-12-20T14:10:53;5.30;99.90
43810;DHT22;29440;48.208;11.162;2023-12-20T14:13:19;5.20;99.90
43810;DHT22;29440;48.208;11.162;2023-12-20T14:15:44;5.20;99.90
43810;DHT22;29440;48.208;11.162;2023-12-20T14:18:10;5.20;99.90
43810;DHT22;29440;48.208;11.162;2023-12-20T14:20:37;5.20;99.90
43810;DHT22;29440;48.208;11.162;2023-12-20T14:23:05;5.10;99.90
43810;DHT22;29440;48.208;11.162;2023-12-20T14:25:30;5.20;99.90
43810;DHT22;29440;48.208;11.162;2023-12-20T14:27:57;5.20;99.90
43810;DHT22;29440;48.208;11.162;2023-12-20T14:30:23;5.10;99.90
43810;DHT22;29440;48.208;11.162;2023-12-20T14:32:48;5.10;99.90
43810;DHT22;29440;48.208;11.162;2023-12-20T14:35:14;5.10;99.90
43810;DHT22;29440;48.208;11.162;2023-12-20T14:37:40;5.10;99.90
43810;DHT22;29440;48.208;11.162;2023-12-20T14:40:06;5.10;99.90
43810;DHT22;29440;48.208;11.162;2023-12-20T14:42:36;5.00;99.90
43810;DHT22;29440;48.208;11.162;2023-12-20T14:45:01;5.00;99.90
43810;DHT22;29440;48.208;11.162;2023-12-20T14:47:27;5.00;99.90
43810;DHT22;29440;48.208;11.162;2023-12-20T14:49:52;4.90;99.90
43810;DHT22;29440;48.208;11.162;2023-12-20T14:52:18;4.90;99.90
43810;DHT22;29440;48.208;11.162;2023-12-20T14:54:44;4.80;99.90
43810;DHT22;29440;48.208;11.162;2023-12-20T14:57:10;4.80;99.90
43810;DHT22;29440;48.208;11.162;2023-12-20T14:59:36;4.70;99.90
43810;DHT22;29440;48.208;11.162;2023-12-20T15:02:01;4.70;99.90
43810;DHT22;29440;48.208;11.162;2023-12-20T15:04:31;4.60;99.90
43810;DHT22;29440;48.208;11.162;2023-12-20T15:06:56;4.60;99.90
43810;DHT22;29440;48.208;11.162;2023-12-20T15:09:22;4.60;99.90
43810;DHT22;29440;48.208;11.162;2023-12-20T15:11:47;4.60;99.90
43810;DHT22;29440;48.208;11.162;2023-12-20T15:14:13;4.50;99.90
43810;DHT22;29440;48.208;11.162;2023-12-20T15:16:44;4.50;99.90
43810;DHT22;29440;48.208;11.162;2023-12-20T15:19:11;4.50;99.90
43810;DHT22;29440;48.208;11.162;2023-12-20T15:21:37;4.50;99.90
43810;DHT22;29440;48.208;11.162;2023-12-20T15:24:06;4.50;99.90
43810;DHT22;29440;48.208;11.162;2023-12-20T15:26:38;4.40;99.90
43810;DHT22;29440;48.208;11.162;2023-12-20T15:29:04;4.40;99.90